Time;durP1;ratioP1;P1;durP2;ratioP2;P2;SDS_P1;SDS_P2;PMS_P1;PMS_P2;Temp;Humidity;BMP_temperature;BMP_pressure;BME280_temperature;BME280_humidity;BME280_pressure;Samples;Min_cycle;Max_cycle;Signal;HPM_P1;HPM_P2
2020/12/31 00:01:01;;;;;;;0.30;0.30;;;3.50;99.90;;;;;;4384461;32;20120;-74
2020/12/31 00:03:26;;;;;;;0.30;0.30;;;3.60;99.90;;;;;;4384416;32;20122;-75
2020/12/31 00:05:52;;;;;;;0.47;0.47;;;3.60;99.90;;;;;;4388464;32;20062;-74
2020/12/31 00:08:17;;;;;;;0.52;0.52;;;3.60;99.90;;;;;;4399152;32;20125;-75
2020/12/31 00:10:43;;;;;;;0.60;0.52;;;3.50;99.90;;;;;;4398811;32;20078;-74
2020/12/31 00:13:08;;;;;;;0.30;0.30;;;3.50;99.90;;;;;;4399042;32;20065;-74
2020/12/31 00:15:34;;;;;;;0.30;0.30;;;3.50;99.90;;;;;;4399119;32;20160;-74
2020/12/31 00:17:59;;;;;;;5.37;1.05;;;3.50;99.90;;;;;;4392302;32;20078;-74
2020/12/31 00:20:25;;;;;;;4.57;1.20;;;3.50;99.90;;;;;;4384632;32;20082;-74
2020/12/31 00:22:50;;;;;;;0.50;0.50;;;3.60;99.90;;;;;;4384724;32;20066;-74
2020/12/31 00:25:16;;;;;;;0.73;0.73;;;3.60;99.90;;;;;;4383138;32;20129;-74
2020/12/31 00:27:42;;;;;;;0.40;0.40;;;3.50;99.90;;;;;;4383728;32;20062;-74
2020/12/31 00:30:09;;;;;;;0.30;0.30;;;3.50;99.90;;;;;;4385196;32;20125;-74
2020/12/31 00:32:35;;;;;;;0.30;0.30;;;3.50;99.90;;;;;;4384561;32;20074;-75
2020/12/31 00:35:02;;;;;;;0.60;0.60;;;3.60;99.90;;;;;;4383039;32;20536;-74
2020/12/31 00:37:33;;;;;;;0.22;0.22;;;3.50;99.90;;;;;;4384296;32;20078;-74
2020/12/31 00:39:59;;;;;;;0.50;0.50;;;3.50;99.90;;;;;;4383219;32;20559;-74
2020/12/31 00:42:24;;;;;;;0.40;0.40;;;3.50;99.90;;;;;;4384248;32;20066;-74
2020/12/31 00:44:50;;;;;;;0.70;0.70;;;3.60;99.90;;;;;;4383486;32;20078;-74
2020/12/31 00:47:15;;;;;;;0.40;0.40;;;3.70;99.90;;;;;;4384342;32;20087;-74
2020/12/31 00:49:41;;;;;;;0.52;0.52;;;3.60;99.90;;;;;;4384925;32;20122;-74
2020/12/31 00:52:06;;;;;;;1.37;0.95;;;3.60;99.90;;;;;;4382828;32;20508;-74
2020/12/31 00:54:32;;;;;;;2.50;0.62;;;3.60;99.90;;;;;;4383396;32;20074;-74
2020/12/31 00:56:57;;;;;;;0.45;0.45;;;3.70;99.90;;;;;;4382971;32;20079;-74
2020/12/31 00:59:22;;;;;;;0.30;0.30;;;3.60;99.90;;;;;;4383508;32;20071;-74
2020/12/31 01:01:48;;;;;;;0.52;0.52;;;3.50;99.90;;;;;;4383215;32;20472;-74
2020/12/31 01:04:13;;;;;;;1.12;0.82;;;3.60;99.90;;;;;;4384419;32;20074;-74
2020/12/31 01:06:39;;;;;;;0.22;0.22;;;3.50;99.90;;;;;;4394475;32;20074;-74
2020/12/31 01:09:07;;;;;;;0.85;0.77;;;3.60;99.90;;;;;;4399573;32;20091;-74
2020/12/31 01:11:34;;;;;;;2.45;1.00;;;3.60;99.90;;;;;;4399022;32;20066;-74
2020/12/31 01:14:00;;;;;;;0.60;0.60;;;3.50;99.90;;;;;;4398383;32;20069;-74
2020/12/31 01:16:25;;;;;;;0.50;0.50;;;3.50;99.90;;;;;;4398463;32;20121;-75
2020/12/31 01:18:51;;;;;;;0.40;0.40;;;3.50;99.90;;;;;;4386790;32;20497;-74
2020/12/31 01:21:17;;;;;;;2.15;1.30;;;3.50;99.90;;;;;;4383463;32;20453;-74
2020/12/31 01:23:42;;;;;;;0.68;0.68;;;3.50;99.90;;;;;;4383262;32;20174;-74
2020/12/31 01:26:11;;;;;;;0.30;0.30;;;3.40;99.90;;;;;;4383112;32;20410;-75
2020/12/31 01:28:37;;;;;;;0.40;0.40;;;3.40;99.90;;;;;;4384227;32;20385;-74
2020/12/31 01:31:07;;;;;;;0.77;0.75;;;3.30;99.90;;;;;;4383482;32;20074;-74
2020/12/31 01:33:35;;;;;;;;;;;3.30;99.90;;;;;;4383651;32;20086;-74
2020/12/31 01:36:01;;;;;;;1.27;1.02;;;3.40;99.90;;;;;;4384416;32;19946;-74
2020/12/31 01:38:26;;;;;;;0.40;0.40;;;3.50;99.90;;;;;;4383288;32;20058;-74
2020/12/31 01:40:52;;;;;;;0.95;0.95;;;3.50;99.90;;;;;;4383123;32;20063;-74
2020/12/31 01:43:18;;;;;;;0.40;0.40;;;3.50;99.90;;;;;;4382680;32;20063;-74
2020/12/31 01:45:43;;;;;;;1.85;1.12;;;3.60;99.90;;;;;;4384000;32;20061;-74
2020/12/31 01:48:09;;;;;;;0.30;0.30;;;3.50;99.90;;;;;;4385765;32;20099;-74
2020/12/31 01:50:34;;;;;;;0.37;0.37;;;3.30;99.90;;;;;;4385751;32;20055;-74
2020/12/31 01:53:00;;;;;;;0.30;0.30;;;3.30;99.90;;;;;;4385497;32;20070;-74
2020/12/31 01:55:25;;;;;;;0.50;0.50;;;3.30;99.90;;;;;;4385495;32;20059;-75
2020/12/31 01:57:52;;;;;;;0.47;0.47;;;3.40;99.90;;;;;;4386508;32;20159;-75
2020/12/31 02:00:17;;;;;;;0.85;0.85;;;3.40;99.90;;;;;;4387496;32;20066;-74
2020/12/31 02:02:43;;;;;;;0.82;0.40;;;3.50;99.90;;;;;;4385676;32;20121;-74
2020/12/31 02:05:11;;;;;;;0.52;0.52;;;3.60;99.90;;;;;;4385775;32;20193;-74
2020/12/31 02:07:37;;;;;;;3.92;0.98;;;3.50;99.90;;;;;;4385589;32;20127;-74
2020/12/31 02:10:03;;;;;;;0.30;0.30;;;3.40;99.90;;;;;;4385543;32;20075;-74
2020/12/31 02:12:32;;;;;;;0.62;0.62;;;3.40;99.90;;;;;;4400191;32;20065;-74
2020/12/31 02:14:58;;;;;;;1.77;1.45;;;3.30;99.90;;;;;;4401728;32;20078;-74
2020/12/31 02:17:23;;;;;;;0.45;0.45;;;3.30;99.90;;;;;;4398378;32;20125;-74
2020/12/31 02:19:49;;;;;;;0.40;0.40;;;3.40;99.90;;;;;;4385744;32;20071;-74
2020/12/31 02:22:15;;;;;;;0.40;0.40;;;3.40;99.90;;;;;;4384615;32;20066;-74
2020/12/31 02:24:41;;;;;;;0.40;0.40;;;3.40;99.90;;;;;;4386101;32;20503;-73
2020/12/31 02:27:07;;;;;;;0.37;0.37;;;3.40;99.90;;;;;;4385793;32;20137;-74
2020/12/31 02:29:32;;;;;;;0.40;0.40;;;3.40;99.90;;;;;;4386529;32;20155;-74
2020/12/31 02:31:58;;;;;;;0.37;0.37;;;3.40;99.90;;;;;;4385235;32;20125;-74
2020/12/31 02:34:24;;;;;;;0.40;0.40;;;3.40;99.90;;;;;;4385322;32;20070;-74
2020/12/31 02:36:51;;;;;;;0.75;0.75;;;3.40;99.90;;;;;;4385136;32;20135;-74
2020/12/31 02:39:17;;;;;;;0.40;0.40;;;3.60;99.90;;;;;;4385120;32;20078;-74
2020/12/31 02:41:44;;;;;;;0.50;0.50;;;3.60;99.90;;;;;;4384634;32;20078;-74
2020/12/31 02:44:09;;;;;;;0.40;0.40;;;3.60;99.90;;;;;;4384992;32;20086;-74
2020/12/31 02:46:35;;;;;;;0.35;0.35;;;3.60;99.90;;;;;;4385075;32;20066;-74
2020/12/31 02:49:01;;;;;;;0.47;0.47;;;3.40;99.90;;;;;;4385126;32;20532;-74
2020/12/31 02:51:27;;;;;;;0.50;0.50;;;3.40;99.90;;;;;;4385092;32;20465;-74
2020/12/31 02:53:52;;;;;;;0.35;0.35;;;3.40;99.90;;;;;;4384586;32;20079;-74
2020/12/31 02:56:20;;;;;;;0.30;0.30;;;3.40;99.90;;;;;;4385125;32;20073;-74
2020/12/31 02:58:46;;;;;;;0.40;0.40;;;3.30;99.90;;;;;;4384230;32;20066;-74
2020/12/31 03:01:13;;;;;;;0.35;0.35;;;3.30;99.90;;;;;;4385030;32;20421;-74
2020/12/31 03:03:39;;;;;;;0.85;0.80;;;3.20;99.90;;;;;;4386344;32;20425;-74
2020/12/31 03:06:05;;;;;;;0.52;0.52;;;3.30;99.90;;;;;;4391773;32;20139;-74
2020/12/31 03:08:31;;;;;;;0.47;0.47;;;3.30;99.90;;;;;;4400284;32;20066;-74
2020/12/31 03:10:57;;;;;;;0.75;0.75;;;3.40;99.90;;;;;;4394377;32;20086;-74
2020/12/31 03:13:23;;;;;;;0.57;0.57;;;3.40;99.90;;;;;;4385082;32;20508;-74
2020/12/31 03:15:50;;;;;;;0.57;0.57;;;3.40;99.90;;;;;;4386134;32;20724;-74
2020/12/31 03:18:16;;;;;;;0.40;0.40;;;3.50;99.90;;;;;;4394215;32;20086;-74
2020/12/31 03:20:43;;;;;;;0.60;0.60;;;3.50;99.90;;;;;;4400348;32;20090;-74
2020/12/31 03:23:16;;;;;;;0.73;0.73;;;3.60;99.90;;;;;;4399241;32;20537;-74
2020/12/31 03:25:43;;;;;;;0.40;0.40;;;3.50;99.90;;;;;;4400387;32;20087;-74
2020/12/31 03:28:09;;;;;;;1.10;1.00;;;3.40;99.90;;;;;;4401376;32;20083;-74
2020/12/31 03:30:36;;;;;;;1.98;1.30;;;3.40;99.90;;;;;;4399550;32;20124;-74
2020/12/31 03:33:02;;;;;;;0.35;0.35;;;3.50;99.90;;;;;;4400004;32;20066;-74
2020/12/31 03:35:28;;;;;;;0.62;0.62;;;3.40;99.90;;;;;;4400633;32;20074;-74
2020/12/31 03:37:53;;;;;;;0.43;0.43;;;3.30;99.90;;;;;;4400538;32;20054;-74
2020/12/31 03:40:20;;;;;;;4.62;0.70;;;3.30;99.90;;;;;;4398925;32;20077;-74
2020/12/31 03:42:46;;;;;;;0.40;0.40;;;3.30;99.90;;;;;;4400395;32;20070;-74
2020/12/31 03:45:11;;;;;;;0.52;0.52;;;3.30;99.90;;;;;;4399301;32;20499;-74
2020/12/31 03:47:37;;;;;;;0.50;0.50;;;3.30;99.90;;;;;;4399920;32;20059;-74
2020/12/31 03:50:04;;;;;;;0.22;0.22;;;3.30;99.90;;;;;;4400085;32;20073;-74
2020/12/31 03:52:31;;;;;;;0.47;0.40;;;3.40;99.90;;;;;;4398818;32;20062;-74
2020/12/31 03:54:56;;;;;;;0.50;0.50;;;3.40;99.90;;;;;;4400036;32;20067;-74
2020/12/31 03:57:22;;;;;;;0.40;0.40;;;3.40;99.90;;;;;;4400449;32;20278;-74
2020/12/31 03:59:48;;;;;;;0.50;0.50;;;3.50;99.90;;;;;;4400755;32;20074;-74
2020/12/31 04:02:13;;;;;;;1.00;0.68;;;3.50;99.90;;;;;;4400525;32;20078;-74
2020/12/31 04:04:38;;;;;;;0.40;0.40;;;3.50;99.90;;;;;;4399503;32;20070;-74
2020/12/31 04:07:04;;;;;;;0.30;0.30;;;3.50;99.90;;;;;;4400208;32;20413;-74
2020/12/31 04:09:30;;;;;;;0.40;0.40;;;3.50;99.90;;;;;;4398465;32;20070;-74
2020/12/31 04:11:55;;;;;;;0.50;0.50;;;3.50;99.90;;;;;;4387246;32;20070;-74
2020/12/31 04:14:21;;;;;;;0.68;0.68;;;3.50;99.90;;;;;;4384370;32;20086;-74
2020/12/31 04:16:46;;;;;;;0.50;0.50;;;3.40;99.90;;;;;;4384341;32;20441;-74
2020/12/31 04:19:12;;;;;;;0.30;0.30;;;3.50;99.90;;;;;;4397979;32;20073;-74
2020/12/31 04:21:37;;;;;;;1.92;0.60;;;3.60;99.90;;;;;;4398507;32;20065;-74
2020/12/31 04:24:02;;;;;;;0.50;0.50;;;3.50;99.90;;;;;;4399084;32;20523;-74
2020/12/31 04:26:28;;;;;;;0.68;0.55;;;3.60;99.90;;;;;;4398520;32;20070;-73
2020/12/31 04:28:53;;;;;;;0.40;0.40;;;3.50;99.90;;;;;;4400224;32;20108;-74
2020/12/31 04:31:19;;;;;;;0.60;0.60;;;3.50;99.90;;;;;;4399163;32;20073;-74
2020/12/31 04:33:44;;;;;;;0.40;0.40;;;3.40;99.90;;;;;;4399801;32;20583;-74
2020/12/31 04:36:10;;;;;;;4.57;0.80;;;3.40;99.90;;;;;;4398889;32;20137;-74
2020/12/31 04:38:35;;;;;;;0.50;0.50;;;3.50;99.90;;;;;;4398962;32;20073;-74
2020/12/31 04:41:02;;;;;;;0.40;0.40;;;3.60;99.90;;;;;;4398526;32;20065;-74
2020/12/31 04:43:27;;;;;;;0.40;0.40;;;3.70;99.90;;;;;;4398814;32;20591;-74
2020/12/31 04:45:54;;;;;;;0.40;0.40;;;3.70;99.90;;;;;;4398739;32;20082;-74
2020/12/31 04:48:38;;;;;;;0.30;0.30;;;3.80;99.90;;;;;;4398874;32;20077;-74
2020/12/31 04:51:06;;;;;;;1.12;0.50;;;3.60;99.90;;;;;;4399090;32;20065;-74
2020/12/31 04:53:32;;;;;;;0.50;0.50;;;3.60;99.90;;;;;;4389720;32;20125;-74
2020/12/31 04:56:01;;;;;;;0.50;0.50;;;3.70;99.90;;;;;;4384611;32;20106;-74
2020/12/31 04:58:27;;;;;;;0.60;0.60;;;3.70;99.90;;;;;;4383304;32;20073;-74
2020/12/31 05:00:52;;;;;;;0.37;0.37;;;3.60;99.90;;;;;;4383682;32;20065;-74
2020/12/31 05:03:18;;;;;;;1.30;0.60;;;3.70;99.90;;;;;;4385122;32;20174;-74
2020/12/31 05:05:45;;;;;;;0.70;0.70;;;3.70;99.90;;;;;;4386575;32;20084;-74
2020/12/31 05:08:11;;;;;;;0.32;0.32;;;3.60;99.90;;;;;;4398955;32;20536;-73
2020/12/31 05:10:38;;;;;;;1.12;0.75;;;3.50;99.90;;;;;;4395888;32;20083;-74
2020/12/31 05:13:05;;;;;;;1.20;1.05;;;3.60;99.90;;;;;;4383685;32;20559;-74
2020/12/31 05:15:37;;;;;;;0.62;0.62;;;3.60;99.90;;;;;;4383866;32;20171;-74
2020/12/31 05:18:17;;;;;;;0.50;0.50;;;3.60;99.90;;;;;;4390172;32;20070;-74
2020/12/31 05:20:44;;;;;;;0.32;0.32;;;3.50;99.90;;;;;;4400202;32;20096;-74
2020/12/31 05:23:11;;;;;;;0.50;0.50;;;3.50;99.90;;;;;;4400746;32;20073;-74
2020/12/31 05:25:36;;;;;;;2.17;1.02;;;3.50;99.90;;;;;;4400621;32;20085;-74
2020/12/31 05:28:03;;;;;;;0.60;0.60;;;3.50;99.90;;;;;;4401988;32;20062;-74
2020/12/31 05:30:29;;;;;;;0.45;0.45;;;3.50;99.90;;;;;;4401614;32;20066;-74
2020/12/31 05:33:03;;;;;;;0.43;0.43;;;3.60;99.90;;;;;;4400945;32;20534;-73
2020/12/31 05:35:29;;;;;;;0.52;0.52;;;3.50;99.90;;;;;;4401494;32;20062;-74
2020/12/31 05:37:54;;;;;;;0.50;0.50;;;3.40;99.90;;;;;;4402006;32;20070;-74
2020/12/31 05:40:20;;;;;;;0.40;0.40;;;3.40;99.90;;;;;;4400401;32;20420;-73
2020/12/31 05:42:45;;;;;;;0.40;0.40;;;3.40;99.90;;;;;;4400972;32;20096;-74
2020/12/31 05:45:13;;;;;;;1.27;0.73;;;3.30;99.90;;;;;;4400566;32;20066;-74
2020/12/31 05:47:54;;;;;;;0.30;0.30;;;3.40;99.90;;;;;;4401218;32;20527;-73
2020/12/31 05:50:21;;;;;;;;;;;3.30;99.90;;;;;;4402184;32;20058;-74
2020/12/31 05:52:47;;;;;;;0.47;0.47;;;3.40;99.90;;;;;;4400685;32;19961;-73
2020/12/31 05:55:16;;;;;;;1.00;0.80;;;3.40;99.90;;;;;;4400505;32;20479;-75
2020/12/31 05:57:48;;;;;;;0.45;0.45;;;3.30;99.90;;;;;;4400949;32;20072;-74
2020/12/31 06:00:16;;;;;;;0.55;0.55;;;3.30;99.90;;;;;;4400782;32;20058;-74
2020/12/31 06:02:43;;;;;;;0.30;0.30;;;3.20;99.90;;;;;;4401798;32;20094;-75
2020/12/31 06:05:13;;;;;;;0.60;0.60;;;3.20;99.90;;;;;;4401027;32;20057;-75
2020/12/31 06:07:43;;;;;;;0.40;0.40;;;3.10;99.90;;;;;;4385459;32;20141;-74
2020/12/31 06:10:10;;;;;;;0.50;0.50;;;3.00;99.90;;;;;;4399977;32;20197;-74
2020/12/31 06:12:43;;;;;;;1.45;0.82;;;2.90;99.90;;;;;;4386293;32;20059;-74
2020/12/31 06:15:09;;;;;;;0.40;0.40;;;3.00;99.90;;;;;;4385123;32;20054;-74
2020/12/31 06:17:45;;;;;;;0.40;0.40;;;3.00;99.90;;;;;;4389166;32;20668;-75
2020/12/31 06:20:13;;;;;;;0.55;0.55;;;3.00;99.90;;;;;;4400417;32;20065;-74
2020/12/31 06:22:58;;;;;;;0.30;0.30;;;3.00;99.90;;;;;;4401000;32;20082;-74
2020/12/31 06:25:35;;;;;;;0.65;0.65;;;3.00;99.90;;;;;;4400274;32;20082;-74
2020/12/31 06:28:12;;;;;;;2.25;0.73;;;2.90;99.90;;;;;;4400367;32;20065;-74
2020/12/31 06:30:40;;;;;;;0.50;0.50;;;2.90;99.90;;;;;;4400771;32;20133;-74
2020/12/31 06:33:11;;;;;;;0.30;0.30;;;2.80;99.90;;;;;;4400132;32;20062;-74
2020/12/31 06:35:39;;;;;;;0.60;0.60;;;2.90;99.90;;;;;;4401172;32;20053;-74
2020/12/31 06:38:05;;;;;;;0.40;0.40;;;2.90;99.90;;;;;;4401075;32;20077;-75
2020/12/31 06:40:33;;;;;;;0.47;0.47;;;2.80;99.90;;;;;;4399723;32;20480;-74
2020/12/31 06:43:09;;;;;;;0.40;0.40;;;2.70;99.90;;;;;;4400403;32;20081;-74
2020/12/31 06:45:50;;;;;;;0.40;0.40;;;2.80;99.90;;;;;;4399895;32;20070;-74
2020/12/31 06:48:24;;;;;;;;;;;2.80;99.90;;;;;;4401202;32;20073;-74
2020/12/31 06:50:55;;;;;;;0.40;0.40;;;2.60;99.90;;;;;;4399759;32;20334;-74
2020/12/31 06:53:40;;;;;;;;;;;2.60;99.90;;;;;;4399508;32;20070;-74
2020/12/31 06:56:07;;;;;;;0.40;0.40;;;2.60;99.90;;;;;;4388694;32;20003;-74
2020/12/31 06:58:34;;;;;;;0.47;0.47;;;2.70;99.90;;;;;;4386888;32;20681;-74
2020/12/31 07:01:01;;;;;;;0.82;0.82;;;2.70;99.90;;;;;;4384724;32;20415;-74
2020/12/31 07:03:43;;;;;;;0.40;0.40;;;2.70;99.90;;;;;;4399585;32;20593;-74
2020/12/31 07:06:26;;;;;;;0.93;0.90;;;2.70;99.90;;;;;;4393934;32;20091;-74
2020/12/31 07:08:53;;;;;;;0.80;0.80;;;2.60;99.90;;;;;;4394842;32;20061;-74
2020/12/31 07:11:40;;;;;;;0.68;0.68;;;2.50;99.90;;;;;;4392173;32;20066;-74
2020/12/31 07:14:23;;;;;;;0.70;0.70;;;2.50;99.90;;;;;;4373061;32;20057;-74
2020/12/31 07:17:06;;;;;;;0.40;0.40;;;2.50;99.90;;;;;;4384908;32;20063;-74
2020/12/31 07:19:34;;;;;;;0.57;0.57;;;2.40;99.90;;;;;;4386352;32;20117;-74
2020/12/31 07:22:00;;;;;;;0.40;0.40;;;2.30;99.90;;;;;;4400754;32;20061;-74
2020/12/31 07:24:28;;;;;;;0.32;0.32;;;2.30;99.90;;;;;;4399073;32;20070;-74
2020/12/31 07:26:56;;;;;;;0.60;0.60;;;2.30;99.90;;;;;;4399525;32;20488;-74
2020/12/31 07:29:28;;;;;;;0.37;0.37;;;2.20;99.90;;;;;;4401072;32;20089;-74
2020/12/31 07:31:53;;;;;;;8.70;3.67;;;2.20;99.90;;;;;;4399563;32;20062;-75
2020/12/31 07:34:24;;;;;;;0.62;0.62;;;2.20;99.90;;;;;;4400037;32;20065;-74
2020/12/31 07:36:59;;;;;;;0.95;0.80;;;2.20;99.90;;;;;;4400814;32;20070;-74
2020/12/31 07:39:24;;;;;;;0.40;0.40;;;2.20;99.90;;;;;;4399476;32;20420;-75
2020/12/31 07:41:50;;;;;;;0.52;0.52;;;2.20;99.90;;;;;;4400547;32;20075;-74
2020/12/31 07:44:16;;;;;;;0.40;0.40;;;2.20;99.90;;;;;;4398794;32;20455;-74
2020/12/31 07:46:43;;;;;;;0.37;0.37;;;2.20;99.90;;;;;;4400318;32;20082;-74
2020/12/31 07:49:11;;;;;;;0.32;0.32;;;2.30;99.90;;;;;;4399714;32;20184;-74
2020/12/31 07:51:37;;;;;;;0.40;0.40;;;2.50;99.90;;;;;;4398679;32;20062;-74
2020/12/31 07:54:02;;;;;;;1.85;0.68;;;2.50;99.90;;;;;;4399387;32;20385;-74
2020/12/31 07:56:29;;;;;;;0.40;0.40;;;2.50;99.90;;;;;;4395637;32;20065;-74
2020/12/31 07:58:56;;;;;;;0.80;0.70;;;2.50;99.90;;;;;;4384525;32;21304;-73
2020/12/31 08:01:23;;;;;;;0.30;0.30;;;2.60;99.90;;;;;;4384895;32;20071;-74
2020/12/31 08:03:49;;;;;;;0.50;0.50;;;2.60;99.90;;;;;;4384090;32;20102;-75
2020/12/31 08:06:14;;;;;;;0.43;0.43;;;2.70;99.90;;;;;;4392026;32;20066;-75
2020/12/31 08:08:41;;;;;;;0.32;0.32;;;2.70;99.90;;;;;;4399212;32;20129;-75
2020/12/31 08:11:09;;;;;;;0.40;0.40;;;2.80;99.90;;;;;;4392517;32;20504;-75
2020/12/31 08:13:36;;;;;;;0.47;0.45;;;2.90;99.90;;;;;;4384841;32;20078;-75
2020/12/31 08:16:01;;;;;;;0.73;0.73;;;2.80;99.90;;;;;;4383283;32;20125;-74
2020/12/31 08:18:27;;;;;;;2.30;0.80;;;2.80;99.90;;;;;;4393560;32;20452;-75
2020/12/31 08:20:56;;;;;;;0.50;0.50;;;2.80;99.90;;;;;;4399428;32;20070;-75
2020/12/31 08:23:34;;;;;;;0.85;0.85;;;2.80;99.90;;;;;;4398789;32;20070;-75
2020/12/31 08:26:02;;;;;;;0.30;0.30;;;2.80;99.90;;;;;;4398587;32;20066;-75
2020/12/31 08:28:29;;;;;;;0.65;0.65;;;2.80;99.90;;;;;;4399819;32;20082;-75
2020/12/31 08:30:55;;;;;;;0.40;0.40;;;2.90;99.90;;;;;;4398839;32;20445;-75
2020/12/31 08:33:25;;;;;;;0.35;0.35;;;2.80;99.90;;;;;;4399295;32;20125;-75
2020/12/31 08:35:51;;;;;;;0.50;0.40;;;2.80;99.90;;;;;;4399223;32;20411;-74
2020/12/31 08:38:18;;;;;;;0.30;0.30;;;2.90;99.90;;;;;;4399018;32;20086;-75
2020/12/31 08:40:46;;;;;;;0.70;0.70;;;2.80;99.90;;;;;;4395081;32;98521;-75
2020/12/31 08:43:21;;;;;;;0.40;0.40;;;2.90;99.90;;;;;;4398752;32;20066;-75
2020/12/31 08:45:48;;;;;;;0.52;0.52;;;3.00;99.90;;;;;;4399119;32;20065;-75
2020/12/31 08:48:17;;;;;;;0.32;0.32;;;3.10;99.90;;;;;;4398984;32;20066;-75
2020/12/31 08:50:58;;;;;;;0.40;0.40;;;3.10;99.90;;;;;;4398562;32;20079;-75
2020/12/31 08:53:24;;;;;;;0.40;0.40;;;3.10;99.90;;;;;;4398770;32;20095;-75
2020/12/31 08:55:50;;;;;;;0.37;0.37;;;3.10;99.90;;;;;;4398018;32;20141;-75
2020/12/31 08:58:17;;;;;;;0.32;0.32;;;3.30;99.90;;;;;;4399416;32;20150;-75
2020/12/31 09:00:43;;;;;;;0.45;0.45;;;3.30;99.90;;;;;;4398902;32;20058;-74
2020/12/31 09:03:09;;;;;;;0.47;0.47;;;3.40;99.90;;;;;;4398387;32;20295;-74
2020/12/31 09:05:38;;;;;;;1.17;1.02;;;3.50;99.90;;;;;;4396693;32;20087;-74
2020/12/31 09:08:07;;;;;;;0.80;0.80;;;3.50;99.90;;;;;;4383827;32;20133;-74
2020/12/31 09:10:35;;;;;;;0.30;0.30;;;3.50;99.90;;;;;;4385605;32;20066;-74
2020/12/31 09:13:02;;;;;;;0.40;0.40;;;3.60;99.90;;;;;;4398822;32;20488;-74
2020/12/31 09:15:28;;;;;;;0.60;0.60;;;3.50;99.90;;;;;;4399325;32;20218;-74
2020/12/31 09:17:53;;;;;;;0.50;0.50;;;3.50;99.90;;;;;;4392876;32;20095;-74
2020/12/31 09:20:21;;;;;;;0.30;0.30;;;3.60;99.90;;;;;;4383742;32;20066;-74
2020/12/31 09:22:47;;;;;;;1.65;0.93;;;3.60;99.90;;;;;;4383754;32;20528;-74
2020/12/31 09:25:13;;;;;;;0.40;0.40;;;3.60;99.90;;;;;;4383333;32;20070;-74
2020/12/31 09:27:40;;;;;;;0.40;0.40;;;3.50;99.90;;;;;;4383326;32;20702;-74
2020/12/31 09:30:09;;;;;;;0.52;0.52;;;3.60;99.90;;;;;;4384203;32;20157;-74
2020/12/31 09:32:34;;;;;;;0.30;0.30;;;3.70;99.90;;;;;;4383515;32;20547;-74
2020/12/31 09:35:02;;;;;;;0.60;0.60;;;3.70;99.90;;;;;;4383112;32;20070;-74
2020/12/31 09:37:28;;;;;;;1.37;1.12;;;3.80;99.90;;;;;;4382977;32;20065;-74
2020/12/31 09:39:53;;;;;;;1.00;0.82;;;3.80;99.90;;;;;;4382748;32;20082;-74
2020/12/31 09:42:19;;;;;;;0.40;0.40;;;3.90;99.90;;;;;;4383290;32;20091;-74
2020/12/31 09:44:44;;;;;;;0.95;0.47;;;3.90;99.90;;;;;;4382925;32;20067;-74
2020/12/31 09:47:10;;;;;;;0.40;0.40;;;3.90;99.90;;;;;;4383481;32;20125;-74
2020/12/31 09:49:35;;;;;;;0.32;0.32;;;4.00;99.90;;;;;;4383715;32;20066;-74
2020/12/31 09:52:01;;;;;;;0.43;0.43;;;4.00;99.90;;;;;;4382289;32;20070;-74
2020/12/31 09:54:27;;;;;;;1.58;0.60;;;4.10;99.90;;;;;;4383337;32;20067;-74
2020/12/31 09:56:52;;;;;;;0.50;0.50;;;4.10;99.90;;;;;;4389367;32;20073;-74
2020/12/31 09:59:18;;;;;;;0.30;0.30;;;4.10;99.90;;;;;;4398491;32;20082;-74
2020/12/31 10:01:45;;;;;;;0.30;0.30;;;4.10;99.90;;;;;;4398220;32;20416;-74
2020/12/31 10:04:11;;;;;;;0.28;0.28;;;4.20;99.90;;;;;;4397747;32;20069;-74
2020/12/31 10:06:36;;;;;;;0.40;0.40;;;4.10;99.90;;;;;;4389419;32;20083;-74
2020/12/31 10:09:02;;;;;;;0.40;0.40;;;4.10;99.90;;;;;;4385474;32;20074;-74
2020/12/31 10:11:29;;;;;;;0.40;0.40;;;4.10;99.90;;;;;;4393595;32;20130;-74
2020/12/31 10:13:54;;;;;;;0.82;0.68;;;4.20;99.90;;;;;;4400699;32;20528;-74
2020/12/31 10:16:20;;;;;;;0.60;0.60;;;4.20;99.90;;;;;;4400470;32;20069;-74
2020/12/31 10:18:45;;;;;;;0.37;0.37;;;4.30;99.90;;;;;;4388697;32;20535;-75
2020/12/31 10:21:13;;;;;;;0.32;0.32;;;4.40;99.90;;;;;;4385381;32;20071;-75
2020/12/31 10:23:38;;;;;;;0.40;0.40;;;4.40;99.90;;;;;;4384966;32;20430;-75
2020/12/31 10:26:04;;;;;;;0.50;0.50;;;4.30;99.90;;;;;;4385786;32;20070;-75
2020/12/31 10:28:29;;;;;;;2.40;0.95;;;4.40;99.90;;;;;;4385254;32;20507;-75
2020/12/31 10:30:55;;;;;;;0.40;0.40;;;4.40;99.90;;;;;;4385471;32;20437;-75
2020/12/31 10:33:20;;;;;;;0.30;0.30;;;4.40;99.90;;;;;;4384987;32;20078;-75
2020/12/31 10:35:45;;;;;;;0.40;0.40;;;4.30;99.90;;;;;;4385485;32;20588;-75
2020/12/31 10:38:11;;;;;;;0.40;0.40;;;4.30;99.90;;;;;;4385999;32;20391;-75
2020/12/31 10:40:36;;;;;;;0.43;0.43;;;4.40;99.90;;;;;;4384215;32;20130;-75
2020/12/31 10:43:02;;;;;;;0.40;0.40;;;4.40;99.90;;;;;;4384974;32;20490;-75
2020/12/31 10:45:27;;;;;;;0.45;0.45;;;4.50;99.90;;;;;;4385741;32;20078;-75
2020/12/31 10:47:53;;;;;;;0.37;0.37;;;4.50;99.90;;;;;;4386353;32;20074;-75
2020/12/31 10:50:19;;;;;;;0.40;0.40;;;4.50;99.90;;;;;;4385482;32;20434;-75
2020/12/31 10:52:44;;;;;;;0.40;0.40;;;4.60;99.90;;;;;;4384719;32;20083;-75
2020/12/31 10:55:10;;;;;;;0.30;0.30;;;4.60;99.90;;;;;;4385031;32;20058;-75
2020/12/31 10:57:36;;;;;;;0.77;0.77;;;4.70;99.90;;;;;;4395634;32;20153;-75
2020/12/31 11:00:01;;;;;;;0.50;0.50;;;4.90;99.90;;;;;;4400078;32;20070;-75
2020/12/31 11:02:27;;;;;;;0.30;0.30;;;5.00;99.90;;;;;;4400243;32;20070;-75
2020/12/31 11:04:52;;;;;;;0.55;0.55;;;5.30;99.90;;;;;;4399567;32;20527;-75
2020/12/31 11:07:18;;;;;;;0.47;0.47;;;5.40;99.90;;;;;;4387535;32;20070;-75
2020/12/31 11:09:43;;;;;;;0.40;0.40;;;5.50;99.90;;;;;;4385561;32;20122;-75
2020/12/31 11:12:08;;;;;;;0.40;0.40;;;5.60;99.90;;;;;;4398486;32;20062;-75
2020/12/31 11:14:34;;;;;;;0.57;0.47;;;5.60;99.90;;;;;;4400688;32;20384;-75
2020/12/31 11:16:59;;;;;;;0.62;0.60;;;5.50;99.90;;;;;;4399935;32;20161;-75
2020/12/31 11:19:26;;;;;;;0.30;0.30;;;5.60;99.90;;;;;;4384238;32;20071;-75
2020/12/31 11:21:52;;;;;;;1.37;1.00;;;5.60;99.90;;;;;;4384806;32;20403;-75
2020/12/31 11:24:18;;;;;;;0.55;0.55;;;5.60;99.90;;;;;;4384575;32;20065;-75
2020/12/31 11:26:43;;;;;;;0.52;0.47;;;5.60;99.90;;;;;;4384674;32;20082;-75
2020/12/31 11:29:09;;;;;;;4.90;1.75;;;5.60;99.90;;;;;;4384868;32;20516;-75
2020/12/31 11:31:35;;;;;;;0.40;0.40;;;5.70;99.90;;;;;;4384726;32;20089;-75
2020/12/31 11:34:00;;;;;;;0.37;0.37;;;5.80;99.90;;;;;;4384562;32;20126;-75
2020/12/31 11:36:27;;;;;;;0.50;0.50;;;5.90;99.90;;;;;;4384767;32;20129;-75
2020/12/31 11:38:54;;;;;;;0.40;0.40;;;6.00;99.90;;;;;;4384588;32;20070;-75
2020/12/31 11:41:19;;;;;;;0.37;0.37;;;6.10;99.90;;;;;;4383978;32;20059;-75
2020/12/31 11:43:45;;;;;;;0.40;0.40;;;6.20;99.90;;;;;;4384115;32;20129;-75
2020/12/31 11:46:11;;;;;;;0.20;0.20;;;6.10;99.90;;;;;;4384015;32;20126;-75
2020/12/31 11:48:38;;;;;;;0.30;0.30;;;5.90;99.90;;;;;;4384377;32;20126;-75
2020/12/31 11:51:07;;;;;;;0.55;0.43;;;5.90;99.90;;;;;;4384299;32;20078;-75
2020/12/31 11:53:32;;;;;;;0.40;0.40;;;6.00;99.90;;;;;;4384359;32;20132;-75
2020/12/31 11:56:00;;;;;;;0.50;0.50;;;6.00;99.90;;;;;;4384057;32;20133;-75
2020/12/31 11:58:26;;;;;;;0.65;0.65;;;6.00;99.90;;;;;;4400212;32;20125;-75
2020/12/31 12:00:51;;;;;;;0.20;0.20;;;6.00;99.90;;;;;;4399904;32;20069;-75
2020/12/31 12:03:17;;;;;;;2.17;1.05;;;6.10;99.90;;;;;;4398941;32;20074;-74
2020/12/31 12:05:42;;;;;;;0.40;0.40;;;6.10;99.90;;;;;;4395714;32;20061;-75
2020/12/31 12:08:08;;;;;;;0.32;0.32;;;5.90;99.90;;;;;;4385213;32;20086;-75
2020/12/31 12:10:34;;;;;;;0.45;0.45;;;5.80;99.90;;;;;;4386666;32;20249;-74
2020/12/31 12:12:59;;;;;;;0.40;0.40;;;5.60;99.90;;;;;;4398966;32;20073;-74
2020/12/31 12:15:25;;;;;;;0.35;0.35;;;5.60;99.90;;;;;;4399359;32;20066;-74
2020/12/31 12:17:51;;;;;;;0.50;0.50;;;5.40;99.90;;;;;;4393418;32;20132;-74
2020/12/31 12:20:17;;;;;;;0.35;0.35;;;5.50;99.90;;;;;;4384061;32;20066;-74
2020/12/31 12:22:42;;;;;;;0.40;0.40;;;5.60;99.90;;;;;;4384030;32;20070;-74
2020/12/31 12:25:08;;;;;;;0.65;0.55;;;5.90;99.90;;;;;;4383473;32;20061;-74
2020/12/31 12:27:35;;;;;;;0.30;0.30;;;5.90;99.90;;;;;;4383848;32;20078;-74
2020/12/31 12:30:05;;;;;;;0.47;0.47;;;6.10;99.90;;;;;;4383267;32;20142;-75
2020/12/31 12:32:30;;;;;;;0.73;0.70;;;6.10;99.90;;;;;;4384234;32;20059;-74
2020/12/31 12:34:56;;;;;;;0.40;0.40;;;6.20;99.90;;;;;;4384042;32;20069;-74
2020/12/31 12:37:22;;;;;;;0.98;0.68;;;6.10;99.90;;;;;;4384077;32;20062;-74
2020/12/31 12:39:48;;;;;;;0.50;0.50;;;6.10;99.90;;;;;;4383488;32;20074;-72
2020/12/31 12:42:14;;;;;;;1.65;0.65;;;6.00;99.90;;;;;;4384789;32;20158;-75
2020/12/31 12:44:39;;;;;;;0.65;0.65;;;5.80;99.90;;;;;;4384587;32;20078;-75
2020/12/31 12:47:05;;;;;;;0.40;0.40;;;5.80;99.90;;;;;;4384104;32;20468;-75
2020/12/31 12:49:30;;;;;;;0.60;0.60;;;5.80;99.90;;;;;;4383908;32;20441;-75
2020/12/31 12:51:56;;;;;;;0.40;0.40;;;6.00;99.90;;;;;;4384833;32;20090;-74
2020/12/31 12:54:21;;;;;;;0.50;0.50;;;6.10;99.90;;;;;;4383801;32;20120;-74
2020/12/31 12:56:51;;;;;;;0.30;0.30;;;6.10;99.90;;;;;;4388274;32;20070;-74